createdAt,value
2016-12-24T00:02:05.852Z,6.04
2016-12-24T00:07:02.305Z,6.20
2016-12-24T00:11:58.968Z,6.36
2016-12-24T00:16:55.800Z,6.59
2016-12-24T00:21:52.527Z,6.64
2016-12-24T00:26:48.986Z,6.79
2016-12-24T00:31:45.371Z,6.92
2016-12-24T00:36:41.923Z,6.89
2016-12-24T00:41:38.664Z,6.96
2016-12-24T00:46:35.328Z,6.77
2016-12-24T00:56:34.371Z,6.56
2016-12-24T01:01:30.973Z,6.41
2016-12-24T01:06:27.520Z,6.28
2016-12-24T01:11:24.176Z,6.28
2016-12-24T01:16:20.527Z,6.33
2016-12-24T01:21:17.220Z,6.27
2016-12-24T01:26:17.516Z,6.31
2016-12-24T01:31:13.197Z,6.31
2016-12-24T01:36:09.937Z,6.27
2016-12-24T01:41:06.258Z,6.20
2016-12-24T01:46:02.773Z,6.19
2016-12-24T01:50:59.096Z,6.19
2016-12-24T01:55:55.500Z,6.26
2016-12-24T02:00:52.011Z,6.27
2016-12-24T02:05:48.300Z,6.24
2016-12-24T02:10:44.888Z,6.30
2016-12-24T02:15:41.437Z,6.27
2016-12-24T02:20:37.865Z,6.27
2016-12-24T02:25:34.764Z,6.27
2016-12-24T02:30:31.221Z,6.31
2016-12-24T02:35:27.770Z,6.44
2016-12-24T02:40:24.274Z,6.42
2016-12-24T02:45:20.674Z,6.49
2016-12-24T02:50:17.954Z,6.56
2016-12-24T02:55:14.183Z,6.46
2016-12-24T03:00:10.718Z,6.64
2016-12-24T03:05:07.327Z,6.69
2016-12-24T03:10:04.015Z,6.66
2016-12-24T03:15:00.546Z,6.67
2016-12-24T03:19:56.896Z,6.75
2016-12-24T03:24:53.515Z,6.79
2016-12-24T03:29:49.654Z,6.97
2016-12-24T03:34:46.180Z,6.97
2016-12-24T03:39:42.662Z,7.02
2016-12-24T03:44:39.174Z,7.06
2016-12-24T03:49:36.065Z,7.06
2016-12-24T03:54:34.011Z,7.11
2016-12-24T03:59:30.170Z,7.11
2016-12-24T04:04:26.795Z,7.17
2016-12-24T04:09:23.457Z,7.17
2016-12-24T04:14:19.720Z,7.17
2016-12-24T04:19:16.205Z,7.23
2016-12-24T04:24:12.576Z,7.23
2016-12-24T04:29:09.176Z,7.17
2016-12-24T04:34:06.238Z,7.29
2016-12-24T04:39:02.660Z,7.25
2016-12-24T04:43:58.833Z,7.31
2016-12-24T04:48:55.499Z,7.29
2016-12-24T04:53:52.038Z,7.25
2016-12-24T04:58:49.595Z,7.29
2016-12-24T05:03:47.319Z,7.32
2016-12-24T05:08:43.350Z,7.31
2016-12-24T05:13:40.120Z,7.31
2016-12-24T05:18:36.803Z,7.33
2016-12-24T05:23:33.407Z,7.38
2016-12-24T05:28:30.383Z,7.47
2016-12-24T05:33:26.881Z,7.45
2016-12-24T05:38:24.512Z,7.47
2016-12-24T05:43:20.657Z,7.39
2016-12-24T05:48:17.216Z,7.42
2016-12-24T05:53:13.998Z,7.45
2016-12-24T05:58:10.623Z,7.47
2016-12-24T06:03:07.865Z,7.45
2016-12-24T06:08:04.228Z,7.53
2016-12-24T06:13:00.606Z,7.50
2016-12-24T06:17:57.101Z,7.53
2016-12-24T06:22:53.365Z,7.56
2016-12-24T06:27:50.004Z,7.51
2016-12-24T06:32:46.639Z,7.29
2016-12-24T06:37:43.148Z,7.25
2016-12-24T06:42:39.538Z,7.20
2016-12-24T06:47:35.987Z,7.29
2016-12-24T06:52:32.486Z,7.29
2016-12-24T06:57:28.846Z,7.36
2016-12-24T07:02:25.364Z,7.60
2016-12-24T07:07:22.511Z,7.56
2016-12-24T07:12:18.715Z,7.56
2016-12-24T07:17:15.473Z,7.56
2016-12-24T07:22:12.029Z,7.57
2016-12-24T07:27:08.513Z,7.54
2016-12-24T07:32:05.248Z,7.56
2016-12-24T07:37:01.814Z,7.57
2016-12-24T07:41:58.633Z,7.53
2016-12-24T07:46:58.268Z,7.58
2016-12-24T07:51:54.006Z,7.51
2016-12-24T07:56:50.419Z,7.57
2016-12-24T08:01:46.908Z,7.67
2016-12-24T08:06:44.451Z,7.61
2016-12-24T08:11:40.873Z,7.69
2016-12-24T08:16:37.210Z,7.72
2016-12-24T08:21:33.317Z,7.77
2016-12-24T08:26:30.342Z,7.77
2016-12-24T08:31:26.517Z,7.80
2016-12-24T08:36:22.857Z,7.77
2016-12-24T08:41:19.484Z,7.76
2016-12-24T08:46:16.166Z,7.87
2016-12-24T08:51:12.330Z,7.85
2016-12-24T08:56:09.079Z,7.77
2016-12-24T09:01:05.808Z,7.76
2016-12-24T09:06:02.242Z,7.67
2016-12-24T09:10:58.447Z,7.61
2016-12-24T09:15:55.919Z,7.77
2016-12-24T09:20:52.371Z,7.82
2016-12-24T09:25:49.280Z,7.66
2016-12-24T09:30:45.768Z,7.66
2016-12-24T09:35:42.497Z,7.56
2016-12-24T09:40:39.743Z,7.83
2016-12-24T09:45:36.488Z,8.00
2016-12-24T09:50:33.444Z,8.31
2016-12-24T09:55:30.227Z,8.42
2016-12-24T10:00:27.961Z,8.41
2016-12-24T10:05:24.645Z,8.49
2016-12-24T10:10:21.523Z,8.67
2016-12-24T10:15:17.781Z,8.63
2016-12-24T10:20:14.342Z,8.53
2016-12-24T10:25:10.807Z,8.56
2016-12-24T10:30:07.579Z,8.69
2016-12-24T10:35:04.198Z,8.67
2016-12-24T10:40:02.498Z,8.70
2016-12-24T10:44:58.569Z,8.69
2016-12-24T10:49:55.090Z,8.73
2016-12-24T10:54:52.101Z,8.44
2016-12-24T10:59:48.584Z,8.60
2016-12-24T11:04:45.318Z,8.52
2016-12-24T11:09:41.764Z,8.56
2016-12-24T11:14:38.319Z,8.58
2016-12-24T11:19:34.940Z,8.73
2016-12-24T11:24:31.834Z,8.81
2016-12-24T11:29:28.719Z,9.25
2016-12-24T11:34:25.260Z,9.21
2016-12-24T11:39:22.004Z,9.03
2016-12-24T11:44:18.509Z,8.88
2016-12-24T11:49:14.707Z,8.87
2016-12-24T11:54:11.249Z,9.00
2016-12-24T11:59:08.471Z,8.88
2016-12-24T12:04:05.023Z,8.88
2016-12-24T12:09:02.366Z,9.37
2016-12-24T12:13:59.498Z,9.13
2016-12-24T12:18:55.789Z,9.10
2016-12-24T12:23:52.427Z,9.03
2016-12-24T12:33:51.061Z,8.89
2016-12-24T12:38:47.963Z,8.71
2016-12-24T12:43:44.546Z,8.70
2016-12-24T12:48:41.119Z,8.56
2016-12-24T12:53:37.653Z,8.49
2016-12-24T12:58:34.563Z,8.56
2016-12-24T13:03:31.687Z,8.51
2016-12-24T13:08:28.368Z,8.33
2016-12-24T13:13:28.025Z,8.38
2016-12-24T13:18:24.288Z,8.26
2016-12-24T13:23:20.667Z,8.33
2016-12-24T13:28:17.064Z,8.31
2016-12-24T13:33:13.492Z,8.31
2016-12-24T13:38:10.227Z,8.34
2016-12-24T13:43:06.638Z,8.30
2016-12-24T13:48:03.020Z,8.27
2016-12-24T13:52:59.553Z,8.12
2016-12-24T13:57:55.933Z,8.24
2016-12-24T14:02:52.377Z,8.18
2016-12-24T14:07:48.886Z,8.12
2016-12-24T14:12:45.342Z,8.10
2016-12-24T14:17:42.163Z,8.12
2016-12-24T14:22:38.625Z,8.10
2016-12-24T14:27:34.993Z,8.01
2016-12-24T14:32:31.542Z,8.06
2016-12-24T14:37:27.720Z,8.09
2016-12-24T14:42:24.381Z,7.97
2016-12-24T14:47:20.938Z,8.12
2016-12-24T14:52:17.531Z,7.95
2016-12-24T14:57:13.521Z,8.06
2016-12-24T15:02:09.936Z,7.95
2016-12-24T15:07:06.581Z,7.83
2016-12-24T15:12:02.689Z,7.80
2016-12-24T15:16:59.266Z,7.85
2016-12-24T15:21:55.721Z,7.80
2016-12-24T15:26:52.108Z,7.80
2016-12-24T15:31:49.701Z,7.75
2016-12-24T15:36:45.956Z,7.75
2016-12-24T15:41:42.411Z,7.77
2016-12-24T15:46:39.736Z,7.77
2016-12-24T15:51:37.656Z,7.70
2016-12-24T15:56:33.773Z,7.80
2016-12-24T16:01:30.395Z,7.79
2016-12-24T16:06:26.955Z,7.85
2016-12-24T16:11:23.243Z,7.80
2016-12-24T16:16:19.289Z,7.83
2016-12-24T16:21:15.756Z,7.75
2016-12-24T16:26:12.976Z,7.67
2016-12-24T16:31:09.830Z,7.79
2016-12-24T16:36:05.875Z,7.75
2016-12-24T16:41:03.252Z,7.77
2016-12-24T16:45:59.924Z,7.80
2016-12-24T16:50:56.674Z,7.79
2016-12-24T16:55:53.032Z,7.79
2016-12-24T17:00:49.593Z,7.76
2016-12-24T17:05:46.436Z,7.83
2016-12-24T17:15:44.124Z,7.80
2016-12-24T17:20:40.531Z,7.80
2016-12-24T17:25:36.832Z,7.79
2016-12-24T17:30:32.910Z,7.75
2016-12-24T17:35:29.511Z,7.77
2016-12-24T17:40:25.791Z,7.73
2016-12-24T17:45:22.675Z,7.80
2016-12-24T17:50:19.849Z,7.75
2016-12-24T17:55:16.226Z,7.80
2016-12-24T18:00:13.225Z,7.82
2016-12-24T18:05:09.425Z,7.87
2016-12-24T18:10:06.123Z,7.82
2016-12-24T18:15:02.709Z,7.85
2016-12-24T18:19:59.320Z,7.79
2016-12-24T18:24:55.615Z,7.79
2016-12-24T18:29:52.187Z,7.76
2016-12-24T18:34:48.701Z,7.85
2016-12-24T18:39:45.503Z,7.87
2016-12-24T18:44:41.706Z,7.69
2016-12-24T18:49:37.765Z,7.63
2016-12-24T18:54:34.683Z,7.69
2016-12-24T18:59:30.868Z,7.69
2016-12-24T19:04:27.535Z,7.88
2016-12-24T19:09:23.979Z,7.82
2016-12-24T19:14:20.633Z,7.88
2016-12-24T19:19:17.727Z,7.94
2016-12-24T19:24:14.124Z,7.76
2016-12-24T19:29:10.384Z,7.94
2016-12-24T19:34:06.943Z,7.88
2016-12-24T19:39:03.602Z,7.87
2016-12-24T19:44:00.204Z,7.87
2016-12-24T19:48:59.156Z,7.98
2016-12-24T19:53:55.091Z,7.98
2016-12-24T19:58:51.448Z,8.06
2016-12-24T20:03:49.502Z,7.98
2016-12-24T20:08:45.446Z,8.09
2016-12-24T20:13:41.921Z,8.09
2016-12-24T20:18:38.663Z,8.15
2016-12-24T20:23:35.242Z,8.15
2016-12-24T20:28:31.800Z,8.23
2016-12-24T20:33:27.969Z,8.15
2016-12-24T20:38:24.762Z,8.15
2016-12-24T20:43:20.801Z,8.24
2016-12-24T20:48:18.673Z,8.18
2016-12-24T20:53:15.390Z,8.20
2016-12-24T20:58:11.763Z,8.23
2016-12-24T21:03:08.233Z,8.15
2016-12-24T21:08:05.142Z,8.19
2016-12-24T21:13:01.948Z,8.31
2016-12-24T21:17:58.640Z,8.31
2016-12-24T21:22:55.355Z,8.27
2016-12-24T21:32:55.866Z,8.27
2016-12-24T21:37:51.983Z,8.33
2016-12-24T21:42:48.570Z,8.30
2016-12-24T21:47:45.005Z,8.24
2016-12-24T21:52:41.724Z,8.28
2016-12-24T21:57:38.785Z,8.28
2016-12-24T22:02:35.954Z,8.33
2016-12-24T22:07:32.523Z,8.28
2016-12-24T22:12:30.805Z,8.33
2016-12-24T22:17:26.783Z,8.31
2016-12-24T22:22:23.628Z,8.30
2016-12-24T22:27:19.827Z,8.27
2016-12-24T22:32:17.104Z,8.28
2016-12-24T22:37:13.818Z,8.28
2016-12-24T22:42:10.886Z,8.31
2016-12-24T22:47:08.325Z,8.33
2016-12-24T22:52:05.137Z,8.45
2016-12-24T22:57:01.464Z,8.31
2016-12-24T23:01:57.965Z,8.36
2016-12-24T23:06:54.670Z,8.27
2016-12-24T23:11:51.698Z,8.33
2016-12-24T23:16:47.987Z,8.27
2016-12-24T23:21:44.683Z,8.28
2016-12-24T23:26:41.549Z,8.24
2016-12-24T23:31:38.055Z,8.27
2016-12-24T23:36:34.583Z,8.27
2016-12-24T23:41:30.697Z,8.26
2016-12-24T23:46:26.986Z,8.12
2016-12-24T23:51:23.653Z,8.13
2016-12-24T23:56:21.880Z,7.97
